Balcom, Illinois
Current Conditions -  °F | °C
As of 2:55 PM on Saturday 25 Oct 2014 (Local Time) from KMWA Reporting Station
Clear Clear  
Wind Chill: 81°   Ceiling: Unl
Heat Index: 81°   Visibility: 20mi
Dew Point: 57°   Wind: 8mph
Humidity: 45%   Direction: 310°NW
Pressure: 30.01"   Gusts: NA
Location:  37.5014°N, 89.1464°W
Report Text: KMWA 251955Z 31007KT 20SM SKC 27/14 A3001
Loading
Personal Weather Stations






























Interactive Weather Map New forecast layout! Learn more

10-Day Weather Forecast

Advertisements
Track Severe Weather on mobile